Northern & Central Napa County

32 Stations

15 Minute Data | America/Los_Angeles
as of 5/2/26 7:19 AM PDT
Station Date Time Temp (°F) RH (%) Dew Pt (°F) Wind Spd (mph) Wind Dir (°) Wind Gust (mph) Latest Rain (In) Daily Rain (In) Daily Max Temp (°F) Daily Min Temp (°F)
Calistoga-North 5/2/26 0715 53.4   5.5 91   8 50.8   3.2 - - - 0.00 0.00 83.7   32.4 45.5   0.0
Stags Leap Dist (Chimney Rock) 5/2/26 0715 54.2   3.5 88   11 50.9   0.4 1.7   0.3 SSW | 196 3.0   0.4 0.00 0.00 54.7   2.0 53.3   9.5
Diamond Mtn (McEachran) 5/2/26 0715 51.3   2.5 96   1 50.1   2.8 - - - - - 53.0   1.1 51.2   3.0
Diamond Mtn (Schramsberg) 5/2/26 0715 49.6   0.3 100   0 49.6   0.2 - - - 0.00 0.00 51.4   0.1 49.3   0.4
Stags Leap Dist (Silverado Vineyards) 5/2/26 0715 53.0   3.0 85   10 48.6   0.0 1.5   1.5 SSE | 155 3.3   2.6 0.00 0.00 53.1   1.2 52.3   7.2
Oak Knoll-East (Ranch 53) 5/2/26 0715 54.0   4.6 83   11 49.1   1.2 1.5   0.5 S | 174 3.7   1.2 0.00 0.00 54.3   2.3 51.8   6.7
Rutherford-North (Mee Ln) 5/2/26 0715 52.9   5.3 86   9 48.8   2.5 1.6   1.2 SW | 235 3.5   1.8 0.00 0.00 53.1   4.9 50.1   7.5
Frisinger Napa-NW 5/2/26 0715 53.9   2.7 85   10 49.6   0.4 1.8   0.9 SW | 215 3.6   0.9 0.00 0.00 54.2   2.8 49.5   3.5
Napa-North (Ranch 29) 5/2/26 0715 54.3   5.6 86   14 50.4   1.6 1.1   1.0 SW | 234 3.5   2.5 0.00 0.00 54.7   1.8 53.1   7.0
St. Helena (NVV Office) 5/2/26 0715 54.0   3.5 - - 0.6   0.5 ENE | 71 2.1   1.2 0.00 0.00 54.8   1.1 53.1   5.7
Crossroads Ranch 5/2/26 0715 53.8   2.5 84   9 49.2   0.4 1.4   1.4 SSW | 196 3.0   2.1 0.00 0.00 53.8   2.5 52.4   6.2
Oakville 5/2/26 0715 53.6   2.6 84   11 49.0   0.8 1.2   0.9 SW | 233 3.1   2.0 0.00 0.00 53.6   2.4 52.1   6.8
OV561-East 5/2/26 0715 53.7   2.6 - - - - - - - 53.8   2.5 52.1   5.3
OV518-West 5/2/26 0715 53.7   2.5 - - - - - - - 53.8   2.3 52.6   6.3
Napa-NW (Ranch 54) 5/2/26 0715 54.4   3.0 82   16 49.2   1.9 0.9   0.9 SSW | 213 3.2   2.5 0.00 0.00 54.8   3.1 51.3   4.6
Calistoga (Ranch 78) 5/2/26 0715 52.7   5.1 88   7 49.4   3.1 1.3   1.2 ESE | 120 4.7   3.6 0.00 0.00 54.3   3.8 52.5   7.7
Yountville-SE (Ranch 85) 5/2/26 0715 54.0   3.8 88   12 50.5   0.3 0.6   0.4 SSW | 209 3.2   1.2 0.00 0.00 54.6   2.2 53.2   7.8
Yountville-South (Ranch 87) 5/2/26 0715 53.9   3.8 87   13 50.1   0.0 1.5   1.1 SW | 219 4.1   2.3 0.00 0.00 54.1   3.5 52.3   7.0
Rutherford Hill Estate 5/2/26 0715 52.0   1.2 91   4 49.5   0.2 0.5   0.3 E | 95 1.8   0.9 0.00 0.00 52.2   0.2 51.3   2.2
Rutherford (STS) 5/2/26 0715 53.6   2.6 90   4 50.8   3.7 1.7   1.7 WSW | 250 4.0   3.8 0.00 0.00 53.7   2.6 52.5   7.7
Borreo (Soda Canyon) 5/2/26 0715 51.7   2.1 89   8 48.7   0.1 1.4   1.2 SSE | 159 3.4   1.9 0.00 0.00 51.8   1.8 50.9   6.3
Oakville-NE (Ranch 88) 5/2/26 0715 53.5   2.4 83   8 48.7   0.1 0.0   0.0 N | 0 0.0   0.0 0.00 0.00 53.6   2.1 52.0   7.2
Soda Canyon 5/2/26 0715 54.1   3.8 84   8 49.6   1.3 2.3   1.6 SSW | 194 4.4   2.5 0.00 0.00 54.4   3.4 53.7   11.4
Silver Oak OV 5/2/26 0715 53.6   2.4 86   9 49.6   0.4 1.0   0.9 SW | 214 2.9   1.8 0.00 0.00 53.8   2.2 52.2   6.4
Tiara Fria (East St. Helena) 5/2/26 0715 53.8   3.0 84   7 49.3   0.8 1.7   1.6 ENE | 60 3.1   2.3 0.00 0.00 54.4   1.4 53.4   5.7
To Kalon Remote (TKKE) 5/2/26 0715 54.1   2.5 - - - - - - - 54.3   2.2 52.9   8.5
To Kalon 5/2/26 0715 53.2   2.1 90   8 50.2   0.1 0.8   0.7 SSW | 193 2.5   1.5 0.00 0.00 53.4   2.0 52.1   7.0
To Kalon Remote (TKN5) 5/2/26 0715 53.9   1.9 - - - - - - - 54.1   1.9 52.4   6.9
St. Helena-North 5/2/26 0715 53.3   4.8 83   7 48.4   2.6 0.8   0.8 ESE | 123 2.6   2.2 0.00 0.00 54.9   3.4 52.8   6.7
Twomey Calistoga 5/2/26 0715 52.9   6.1 90   10 50.1   3.2 1.0   0.6 E | 79 2.6   0.1 0.00 0.00 54.1   4.8 52.6   9.9
Wappo Hill Floor 5/2/26 0715 54.0   5.3 84   16 49.3   0.6 1.5   1.2 SSW | 207 3.8   2.4 0.00 0.00 54.0   3.7 52.5   9.0
Yountville (Ranch 67) 5/2/26 0715 53.2   2.9 83   10 48.3   0.1 1.4   1.3 S | 180 3.2   1.8 0.00 0.00 53.2   1.5 52.2   6.8
Max     54.4 100 50.9 2.3 - 4.7 0.00 0.00 83.7 53.7
Avg     53.4 87 49.5 1.2 - 3.1 0.00 - - -
Min     49.6 82 48.3 0.0 - 0.0 0.00 0.00 51.4 45.5